Logo AVAMET
Benvolgut visitant, si us plau, ingressa Recuperar contrasenya

VAERSA Teresa de Cofrents Caroig

Dades diàries. Acumulats / Últims 30 dies disponibles

Data Temperatura (°C) Humitat rel. (%) Pressió rel. (hPa) Vent (km/h) Precipitació
Mínima Mitjana Màxima Amplitud
tèrmica
Mínima Mitjana Màxima Mínima Mitjana Màxima Predom. Mitjana Ràfega
màxima
Total
(mm)
Índex-n
Mínima Mitjana Màxima Mínima Mitjana Màxima n
0 a 1
P0 max
mm 5'
Dades mensuals acumulades fins l'últim dia disponible
07/2019 -17,8 12,9 23,4 21,5 21,1 26,9 33,3 0 61 99 0 1.011 1.020   17,2 78,9 0,2
Dades anuals acumulades fins l'últim dia disponible
2019 -17,8 7,0 25,0 11,3 1,6 15,3 33,3 0 64 99 0 1.015 1.033   21,5 125,5 210,6
Últims 30 dies disponibles
22-07-2019 18,1     20,0     25,4 7,3 45 62 80 1.017 1.018 1.020 ONO 21,1 37,0 0,0
21-07-2019 18,1     19,8     24,8 6,7 38 63 88 1.015 1.016 1.019 O 21,6 48,3 0,0
19-07-2019 19,3     21,2     27,6 8,3 38 57 78 1.011 1.012 1.013 ONO 13,0 35,4 0,0
17-07-2019 15,7     19,2     26,6 10,9 48 64 97 1.009 1.012 1.013 ONO 9,1 38,6 0,0
16-07-2019 -17,8     20,1     25,3 43,1 0 79 98 1.010 1.011 1.013 OSO 18,6 45,1 0,0
15-07-2019 19,3     22,5     29,6 10,3 31 63 85 0 997 1.013 ONO 16,1 46,7 0,0
14-07-2019 17,8     19,1     30,5 12,7 51 72 92 1.005 1.007 1.009 N 27,0 78,9 0,0
13-07-2019 22,2     26,1     30,5 8,3 23 36 96 1.006 1.009 1.011 SSO 16,1 78,9 0,0
12-07-2019 23,4     26,9     28,4 5,0 28 36 50 1.010 1.011 1.012 SSO 13,2 43,5 0,0
11-07-2019 19,8     20,3     21,2 1,4 50 59 68 1.011 1.012 1.012 N 12,7 22,5 0,0
10-07-2019 16,1     21,0     26,9 10,8 51 66 83 1.010 1.011 1.013 SSE 11,8 32,2 0,0
09-07-2019 -17,8     19,5     25,5 43,3 0 58 98 1.007 1.010 1.012 OSO 21,3 59,5 0,2
08-07-2019 17,9     18,7     21,1 3,2 81 91 97 1.007 1.007 1.008 E 24,6 64,4
07-07-2019 18,3     25,2     33,3 15,0 26 43 94 1.006 1.007 1.009 SSO 19,3 70,8
06-07-2019 21,2     26,4     33,3 12,1 25 39 70 1.008 1.010 1.012 OSO 20,5 53,1 0,0
05-07-2019 17,6     22,9     28,6 11,0 45 61 75 1.011 1.013 1.015 SSO 11,1 32,2 0,0
03-07-2019 17,2     19,8     23,9 6,7 43 60 77 1.011 1.012 1.013 O 19,9 40,2 0,0
02-07-2019 -17,8     18,6     23,8 41,6 0 87 99 1.011 1.012 1.013 SO 16,9 37,0 0,0
01-07-2019 17,0     21,9     25,3 8,3 39 59 98 1.011 1.012 1.013 SSE 13,0 37,0 0,0
30-06-2019 23,2     25,5     28,1 4,9 8 29 49 1.011 1.013 1.014 S 14,7 40,2 0,0
29-06-2019 25,0     25,6     26,7 1,7 10 26 34 1.012 1.013 1.014 ESE 19,1 20,9 0,0
28-06-2019 -17,8     25,1     29,9 0 39 61 1.013 1.015 1.016 SSE 15,1 32,2 0,0
27-06-2019 -17,8     15,8     17,4 35,2 0 92 99 1.016 1.017 1.018 ENE 32,2 43,5 0,4
26-06-2019 14,9     16,8     25,5 10,6 80 96 99 1.013 1.015 1.016 SSE 20,1 49,9 0,0
25-06-2019 16,3     18,8     23,3 7,0 53 70 97 1.012 1.013 1.014 SO 10,3 40,2 0,0
24-06-2019 15,7     18,0     25,8 10,1 45 55 67 1.010 1.011 1.013 SO 18,6 37,0 0,0
23-06-2019 16,6     20,9     25,8 9,2 0 52 92 1.010 1.012 1.013 SSE 8,2 35,4 0,0
22-06-2019 -17,8     16,4     22,7 40,5 0 83 96 1.012 1.014 1.015 S 14,5 32,2 0,0
21-06-2019 12,6     15,6     20,9 8,3 76 89 98 1.009 1.011 1.015 SO 13,6 35,4 0,0
20-06-2019 -17,8     20,7     22,8 40,6 0 48 73 1.008 1.008 1.009 ONO 20,4 43,5 0,0
Últims 13 mesos disponibles
06/2019 9,7 25,0 17,7 13,5 22,3 29,9 29,9 26 59 97 1.007 1.012 1.019 SSE 18,7 111,0 0,4
05/2019 3,7 9,5 13,6 13,2 13,6 19,0 24,1 20,4 52 65 89 1.001 1.012 1.022 SSE 14,4 107,8 33,6
04/2019 1,5 5,0 8,7 8,1 6,0 11,6 19,2 17,7 42 81 99 998 1.010 1.018 O 25,8 107,8 174,4
12/2018 1,2 5,9 10,9 8,3 2,5 10,9 18,7 17,5 17 65 93 1.011 1.023 1.030 ONO 31,1 106,2 0,2
11/2018 2,7 5,7 9,9 7,7 4,1 10,2 16,8 14,1 25 84 99 999 1.014 1.022 O 28,0 141,6 69,8
Tots els anys disponibles
Precipitació (mm)
Nota sobre les dades: s'avisa a l'usuari de la provisionalitat i no oficialitat d'aquestes dades
Logo AVAMET blanc
Web allotjada a Sollutia
Llicència de Creative CommonsLa web d'AVAMET i els seus continguts estan subjectes a una llicència de
Reconeixement - No Comercial - Compartir igual
Properes estacions: Altea - Club Nàutic d'Altea (Soci), Ares del Maestrat (Ajuntament Soci),      - - - - -      Últimes estacions: Catadau - Urb. Lloma Molina (Inforatge), Ontinyent - El Pilar (Soci) - - -